PWSweather.com
Personal Weather Stations
Station Observations
PWSLORIS
The Farm At Fox Bay, Loris, SC 29569

The Farm At Fox BayLoris, SC 29569

Lat: 34.067097, Lon: -78.86907

Elevation: 108

Station Type: Davis Vantage Pro2 with 24 hr. FARS and solar

http://www.lorisweather.com

High Low Average
Temperature 85.1°F29.5°C 68.2°F20.1°C 76.1°F24.5°C
Dew Point 74.3°F23.5°C 66.8°F19.3°C 70.9°F21.6°C
Winds 8.1 mph 13.0 kmh Calm Calm 2.0 mph SSE3.2 kmh SSE
Wind Gusts 13.8 mph22.2 kmh -- 3.0 mph4.8 kmh
Humidity 97% 64% 85%
Pressure 30.13 in1020.3 mb 30.05 in1017.6 mb -
Precipitation 0.01 in0.3 mm - -
Hour Temp Dew Point Humidity Winds Wind Gusts Pressure Precip Precip Rate Daily Precip Total
12:00 AM 72.4°F22.4°C 69.0°F20.6°C 89% Calm Calm -- 30.11 in1019.6 mb - 0.00 in0.0 mm 0.00 in0.0 mm
12:15 AM 72.4°F22.4°C 69.0°F20.6°C 89% Calm Calm -- 30.11 in1019.6 mb - 0.00 in0.0 mm 0.00 in0.0 mm
12:30 AM 72.1°F22.3°C 69.0°F20.6°C 90% Calm Calm -- 30.11 in1019.6 mb - 0.00 in0.0 mm 0.00 in0.0 mm
12:45 AM 71.8°F22.1°C 68.7°F20.4°C 90% Calm Calm -- 30.11 in1019.6 mb - 0.00 in0.0 mm 0.00 in0.0 mm
01:00 AM 71.7°F22.1°C 68.9°F20.5°C 91% Calm Calm -- 30.11 in1019.6 mb - 0.00 in0.0 mm 0.00 in0.0 mm
01:15 AM 71.4°F21.9°C 68.9°F20.5°C 92% Calm Calm -- 30.10 in1019.3 mb - 0.00 in0.0 mm 0.00 in0.0 mm
01:30 AM 71.0°F21.7°C 68.6°F20.3°C 92% Calm Calm -- 30.09 in1019.0 mb - 0.00 in0.0 mm 0.00 in0.0 mm
01:45 AM 70.6°F21.4°C 68.5°F20.3°C 93% Calm Calm -- 30.09 in1019.0 mb - 0.00 in0.0 mm 0.00 in0.0 mm
02:00 AM 69.9°F21.1°C 67.8°F19.9°C 93% Calm Calm -- 30.09 in1019.0 mb - 0.00 in0.0 mm 0.00 in0.0 mm
02:15 AM 69.4°F20.8°C 67.6°F19.8°C 94% Calm Calm -- 30.09 in1019.0 mb - 0.00 in0.0 mm 0.00 in0.0 mm
02:30 AM 69.1°F20.6°C 67.3°F19.6°C 94% Calm Calm -- 30.08 in1018.6 mb - 0.00 in0.0 mm 0.00 in0.0 mm
02:45 AM 68.9°F20.5°C 67.4°F19.7°C 95% Calm Calm -- 30.08 in1018.6 mb - 0.00 in0.0 mm 0.00 in0.0 mm
03:00 AM 68.4°F20.2°C 66.9°F19.4°C 95% Calm Calm -- 30.07 in1018.3 mb - 0.00 in0.0 mm 0.00 in0.0 mm
03:15 AM 68.3°F20.2°C 66.8°F19.3°C 95% Calm Calm -- 30.07 in1018.3 mb - 0.00 in0.0 mm 0.00 in0.0 mm
03:30 AM 68.3°F20.2°C 67.1°F19.5°C 96% Calm Calm -- 30.06 in1017.9 mb - 0.00 in0.0 mm 0.00 in0.0 mm
03:45 AM 68.2°F20.1°C 67.0°F19.4°C 96% Calm Calm -- 30.07 in1018.3 mb - 0.00 in0.0 mm 0.00 in0.0 mm
04:00 AM 68.3°F20.2°C 67.1°F19.5°C 96% Calm Calm -- 30.07 in1018.3 mb - 0.00 in0.0 mm 0.00 in0.0 mm
04:15 AM 68.3°F20.2°C 67.1°F19.5°C 96% Calm Calm -- 30.08 in1018.6 mb - 0.00 in0.0 mm 0.00 in0.0 mm
04:30 AM 68.5°F20.3°C 67.3°F19.6°C 96% Calm Calm -- 30.08 in1018.6 mb - 0.00 in0.0 mm 0.00 in0.0 mm
04:45 AM 68.6°F20.3°C 67.4°F19.7°C 96% Calm Calm -- 30.08 in1018.6 mb - 0.00 in0.0 mm 0.00 in0.0 mm
05:00 AM 68.8°F20.4°C 67.6°F19.8°C 96% Calm Calm -- 30.08 in1018.6 mb - 0.00 in0.0 mm 0.00 in0.0 mm
05:15 AM 68.6°F20.3°C 67.4°F19.7°C 96% Calm Calm -- 30.09 in1019.0 mb - 0.00 in0.0 mm 0.00 in0.0 mm
05:30 AM 68.5°F20.3°C 67.3°F19.6°C 96% Calm Calm -- 30.09 in1019.0 mb - 0.00 in0.0 mm 0.00 in0.0 mm
05:45 AM 68.5°F20.3°C 67.3°F19.6°C 96% Calm Calm -- 30.10 in1019.3 mb - 0.00 in0.0 mm 0.00 in0.0 mm
06:00 AM 68.6°F20.3°C 67.7°F19.8°C 97% Calm Calm -- 30.10 in1019.3 mb - 0.00 in0.0 mm 0.00 in0.0 mm
06:15 AM 68.5°F20.3°C 67.6°F19.8°C 97% Calm Calm -- 30.10 in1019.3 mb - 0.00 in0.0 mm 0.00 in0.0 mm
06:30 AM 68.8°F20.4°C 67.9°F19.9°C 97% Calm Calm -- 30.10 in1019.3 mb - 0.00 in0.0 mm 0.00 in0.0 mm
06:45 AM 68.7°F20.4°C 67.8°F19.9°C 97% Calm Calm -- 30.11 in1019.6 mb - 0.00 in0.0 mm 0.00 in0.0 mm
07:00 AM 69.0°F20.6°C 68.1°F20.1°C 97% Calm Calm -- 30.11 in1019.6 mb - 0.00 in0.0 mm 0.00 in0.0 mm
07:15 AM 69.1°F20.6°C 68.2°F20.1°C 97% Calm Calm -- 30.11 in1019.6 mb - 0.00 in0.0 mm 0.00 in0.0 mm
07:30 AM 69.4°F20.8°C 68.5°F20.3°C 97% Calm Calm -- 30.11 in1019.6 mb - 0.00 in0.0 mm 0.00 in0.0 mm
07:45 AM 69.8°F21.0°C 68.9°F20.5°C 97% Calm Calm -- 30.11 in1019.6 mb - 0.01 in0.3 mm 0.01 in0.3 mm
08:00 AM 70.3°F21.3°C 69.4°F20.8°C 97% Calm Calm -- 30.10 in1019.3 mb - 0.00 in0.0 mm 0.01 in0.3 mm
08:15 AM 70.5°F21.4°C 69.6°F20.9°C 97% Calm Calm -- 30.11 in1019.6 mb - 0.00 in0.0 mm 0.01 in0.3 mm
08:30 AM 70.7°F21.5°C 69.5°F20.8°C 96% Calm Calm -- 30.11 in1019.6 mb - 0.00 in0.0 mm 0.01 in0.3 mm
08:45 AM 71.0°F21.7°C 69.8°F21.0°C 96% Calm Calm -- 30.11 in1019.6 mb - 0.00 in0.0 mm 0.01 in0.3 mm
09:00 AM 72.0°F22.2°C 70.5°F21.4°C 95% Calm Calm -- 30.11 in1019.6 mb - 0.00 in0.0 mm 0.01 in0.3 mm
09:15 AM 73.4°F23.0°C 70.9°F21.6°C 92% Calm Calm -- 30.10 in1019.3 mb - 0.00 in0.0 mm 0.01 in0.3 mm
09:30 AM 74.0°F23.3°C 70.2°F21.2°C 88% Calm Calm -- 30.11 in1019.6 mb - 0.00 in0.0 mm 0.01 in0.3 mm
09:45 AM 74.5°F23.6°C 71.4°F21.9°C 90% Calm Calm -- 30.13 in1020.3 mb - 0.00 in0.0 mm 0.01 in0.3 mm
10:00 AM 75.1°F23.9°C 70.6°F21.4°C 86% Calm Calm -- 30.12 in1020.0 mb - 0.00 in0.0 mm 0.01 in0.3 mm
10:15 AM 77.9°F25.5°C 69.7°F20.9°C 76% Calm Calm -- 30.12 in1020.0 mb - 0.00 in0.0 mm 0.01 in0.3 mm
10:30 AM 79.5°F26.4°C 72.8°F22.7°C 80% 3.5 mph S5.6 kmh S 6.9 mph11.1 kmh 30.12 in1020.0 mb - 0.00 in0.0 mm 0.01 in0.3 mm
10:45 AM 79.4°F26.3°C 73.1°F22.8°C 81% Calm Calm -- 30.12 in1020.0 mb - 0.00 in0.0 mm 0.01 in0.3 mm
11:00 AM 80.5°F26.9°C 73.4°F23.0°C 79% 3.5 mph SE5.6 kmh SE 4.6 mph7.4 kmh 30.12 in1020.0 mb - 0.00 in0.0 mm 0.01 in0.3 mm
11:15 AM 81.4°F27.4°C 72.3°F22.4°C 74% 1.2 mph SE1.9 kmh SE 1.2 mph1.9 kmh 30.12 in1020.0 mb - 0.00 in0.0 mm 0.01 in0.3 mm
11:30 AM 82.7°F28.2°C 70.2°F21.2°C 66% 3.5 mph SE5.6 kmh SE 5.8 mph9.3 kmh 30.13 in1020.3 mb - 0.00 in0.0 mm 0.01 in0.3 mm
11:45 AM 82.7°F28.2°C 71.1°F21.7°C 68% 2.3 mph ESE3.7 kmh ESE 3.5 mph5.6 kmh 30.12 in1020.0 mb - 0.00 in0.0 mm 0.01 in0.3 mm
12:00 PM 82.7°F28.2°C 71.5°F21.9°C 69% 4.6 mph S7.4 kmh S 10.4 mph16.7 kmh 30.13 in1020.3 mb - 0.00 in0.0 mm 0.01 in0.3 mm
12:15 PM 83.5°F28.6°C 72.2°F22.3°C 69% 4.6 mph S7.4 kmh S 9.2 mph14.8 kmh 30.12 in1020.0 mb - 0.00 in0.0 mm 0.01 in0.3 mm
12:30 PM 82.8°F28.2°C 70.7°F21.5°C 67% 2.3 mph ESE3.7 kmh ESE 4.6 mph7.4 kmh 30.12 in1020.0 mb - 0.00 in0.0 mm 0.01 in0.3 mm
12:45 PM 83.1°F28.4°C 72.7°F22.6°C 71% 2.3 mph ESE3.7 kmh ESE 4.6 mph7.4 kmh 30.12 in1020.0 mb - 0.00 in0.0 mm 0.01 in0.3 mm
01:00 PM 82.8°F28.2°C 73.3°F22.9°C 73% 2.3 mph SE3.7 kmh SE 5.8 mph9.3 kmh 30.11 in1019.6 mb - 0.00 in0.0 mm 0.01 in0.3 mm
01:15 PM 83.2°F28.4°C 72.8°F22.7°C 71% 5.8 mph SSE9.3 kmh SSE 5.8 mph9.3 kmh 30.11 in1019.6 mb - 0.00 in0.0 mm 0.01 in0.3 mm
01:30 PM 82.3°F27.9°C 73.2°F22.9°C 74% 3.5 mph S5.6 kmh S 11.5 mph18.5 kmh 30.11 in1019.6 mb - 0.00 in0.0 mm 0.01 in0.3 mm
01:45 PM 84.1°F28.9°C 72.8°F22.7°C 69% 6.9 mph SSE11.1 kmh SSE 13.8 mph22.2 kmh 30.10 in1019.3 mb - 0.00 in0.0 mm 0.01 in0.3 mm
02:00 PM 83.1°F28.4°C 72.7°F22.6°C 71% 6.9 mph SE11.1 kmh SE 11.5 mph18.5 kmh 30.10 in1019.3 mb - 0.00 in0.0 mm 0.01 in0.3 mm
02:15 PM 83.8°F28.8°C 72.1°F22.3°C 68% 8.1 mph SSE13.0 kmh SSE 11.5 mph18.5 kmh 30.09 in1019.0 mb - 0.00 in0.0 mm 0.01 in0.3 mm
02:30 PM 83.4°F28.6°C 71.3°F21.8°C 67% 6.9 mph SSE11.1 kmh SSE 11.5 mph18.5 kmh 30.09 in1019.0 mb - 0.00 in0.0 mm 0.01 in0.3 mm
02:45 PM 84.0°F28.9°C 71.4°F21.9°C 66% 6.9 mph S11.1 kmh S 9.2 mph14.8 kmh 30.08 in1018.6 mb - 0.00 in0.0 mm 0.01 in0.3 mm
03:00 PM 84.9°F29.4°C 72.2°F22.3°C 66% 5.8 mph S9.3 kmh S 10.4 mph16.7 kmh 30.07 in1018.3 mb - 0.00 in0.0 mm 0.01 in0.3 mm
03:15 PM 85.1°F29.5°C 71.5°F21.9°C 64% 4.6 mph ESE7.4 kmh ESE 13.8 mph22.2 kmh 30.07 in1018.3 mb - 0.00 in0.0 mm 0.01 in0.3 mm
03:30 PM 84.5°F29.2°C 72.3°F22.4°C 67% 5.8 mph SE9.3 kmh SE 9.2 mph14.8 kmh 30.07 in1018.3 mb - 0.00 in0.0 mm 0.01 in0.3 mm
03:45 PM 84.0°F28.9°C 72.8°F22.7°C 69% 3.5 mph SSE5.6 kmh SSE 8.1 mph13.0 kmh 30.07 in1018.3 mb - 0.00 in0.0 mm 0.01 in0.3 mm
04:00 PM 82.6°F28.1°C 71.4°F21.9°C 69% 1.2 mph SSW1.9 kmh SSW 6.9 mph11.1 kmh 30.07 in1018.3 mb - 0.00 in0.0 mm 0.01 in0.3 mm
04:15 PM 82.9°F28.3°C 72.1°F22.3°C 70% 5.8 mph S9.3 kmh S 9.2 mph14.8 kmh 30.07 in1018.3 mb - 0.00 in0.0 mm 0.01 in0.3 mm
04:30 PM 82.2°F27.9°C 72.7°F22.6°C 73% 5.8 mph SSE9.3 kmh SSE 5.8 mph9.3 kmh 30.06 in1017.9 mb - 0.00 in0.0 mm 0.01 in0.3 mm
04:45 PM 83.8°F28.8°C 73.4°F23.0°C 71% 5.8 mph S9.3 kmh S 10.4 mph16.7 kmh 30.06 in1017.9 mb - 0.00 in0.0 mm 0.01 in0.3 mm
05:00 PM 82.2°F27.9°C 72.3°F22.4°C 72% 5.8 mph SSE9.3 kmh SSE 6.9 mph11.1 kmh 30.06 in1017.9 mb - 0.00 in0.0 mm 0.01 in0.3 mm
05:15 PM 82.9°F28.3°C 71.7°F22.1°C 69% 2.3 mph SSE3.7 kmh SSE 5.8 mph9.3 kmh 30.06 in1017.9 mb - 0.00 in0.0 mm 0.01 in0.3 mm
05:30 PM 83.2°F28.4°C 71.5°F21.9°C 68% Calm Calm 5.8 mph9.3 kmh 30.06 in1017.9 mb - 0.00 in0.0 mm 0.01 in0.3 mm
05:45 PM 82.8°F28.2°C 72.0°F22.2°C 70% 4.6 mph SSE7.4 kmh SSE 8.1 mph13.0 kmh 30.06 in1017.9 mb - 0.00 in0.0 mm 0.01 in0.3 mm
06:00 PM 82.8°F28.2°C 73.2°F22.9°C 73% 4.6 mph SE7.4 kmh SE 11.5 mph18.5 kmh 30.05 in1017.6 mb - 0.00 in0.0 mm 0.01 in0.3 mm
06:15 PM 81.2°F27.3°C 72.9°F22.7°C 76% 4.6 mph SSE7.4 kmh SSE 8.1 mph13.0 kmh 30.06 in1017.9 mb - 0.00 in0.0 mm 0.01 in0.3 mm
06:30 PM 80.9°F27.2°C 73.4°F23.0°C 78% 2.3 mph SE3.7 kmh SE 3.5 mph5.6 kmh 30.06 in1017.9 mb - 0.00 in0.0 mm 0.01 in0.3 mm
06:45 PM 80.5°F26.9°C 73.7°F23.2°C 80% 3.5 mph SSE5.6 kmh SSE 6.9 mph11.1 kmh 30.06 in1017.9 mb - 0.00 in0.0 mm 0.01 in0.3 mm
09:15 PM 77.1°F25.1°C 74.3°F23.5°C 91% Calm Calm -- 30.05 in1017.6 mb - 0.00 in0.0 mm 0.01 in0.3 mm
09:30 PM 76.9°F24.9°C 74.1°F23.4°C 91% Calm Calm -- 30.06 in1017.9 mb - 0.00 in0.0 mm 0.01 in0.3 mm
09:45 PM 76.8°F24.9°C 74.3°F23.5°C 92% Calm Calm -- 30.06 in1017.9 mb - 0.00 in0.0 mm 0.01 in0.3 mm
10:00 PM 76.7°F24.8°C 74.2°F23.4°C 92% Calm Calm -- 30.07 in1018.3 mb - 0.00 in0.0 mm 0.01 in0.3 mm
10:15 PM 76.6°F24.8°C 74.1°F23.4°C 92% Calm Calm -- 30.07 in1018.3 mb - 0.00 in0.0 mm 0.01 in0.3 mm
10:30 PM 76.5°F24.7°C 74.0°F23.3°C 92% Calm Calm -- 30.07 in1018.3 mb - 0.00 in0.0 mm 0.01 in0.3 mm
10:45 PM 76.5°F24.7°C 74.3°F23.5°C 93% Calm Calm -- 30.07 in1018.3 mb - 0.00 in0.0 mm 0.01 in0.3 mm
11:00 PM 76.4°F24.7°C 74.2°F23.4°C 93% Calm Calm -- 30.07 in1018.3 mb - 0.00 in0.0 mm 0.01 in0.3 mm
11:15 PM 76.3°F24.6°C 74.1°F23.4°C 93% Calm Calm -- 30.06 in1017.9 mb - 0.00 in0.0 mm 0.01 in0.3 mm
11:30 PM 76.2°F24.6°C 74.0°F23.3°C 93% Calm Calm -- 30.07 in1018.3 mb - 0.00 in0.0 mm 0.01 in0.3 mm
11:45 PM 76.0°F24.4°C 73.8°F23.2°C 93% Calm Calm -- 30.06 in1017.9 mb - 0.00 in0.0 mm 0.01 in0.3 mm